sensor_id;sensor_type;location;lat;lon;timestamp;P1;durP1;ratioP1;P2;durP2;ratioP2
15340;SDS011;7770;52.158;5.372;2022-11-21T00:01:32;68.47;;;46.17;;
15340;SDS011;7770;52.158;5.372;2022-11-21T00:04:18;67.07;;;45.77;;
15340;SDS011;7770;52.158;5.372;2022-11-21T00:07:04;69.47;;;45.23;;
15340;SDS011;7770;52.158;5.372;2022-11-21T00:09:49;68.00;;;45.47;;
15340;SDS011;7770;52.158;5.372;2022-11-21T00:12:35;69.90;;;47.50;;
15340;SDS011;7770;52.158;5.372;2022-11-21T00:15:22;66.30;;;45.30;;
15340;SDS011;7770;52.158;5.372;2022-11-21T00:18:10;66.47;;;44.80;;
15340;SDS011;7770;52.158;5.372;2022-11-21T00:20:57;65.03;;;44.70;;
15340;SDS011;7770;52.158;5.372;2022-11-21T00:23:51;68.30;;;47.57;;
15340;SDS011;7770;52.158;5.372;2022-11-21T00:26:37;72.50;;;48.67;;
15340;SDS011;7770;52.158;5.372;2022-11-21T00:29:23;71.13;;;48.47;;
15340;SDS011;7770;52.158;5.372;2022-11-21T00:32:09;74.60;;;48.47;;
15340;SDS011;7770;52.158;5.372;2022-11-21T00:34:55;67.87;;;47.80;;
15340;SDS011;7770;52.158;5.372;2022-11-21T00:37:41;65.80;;;46.83;;
15340;SDS011;7770;52.158;5.372;2022-11-21T00:40:27;60.47;;;43.20;;
15340;SDS011;7770;52.158;5.372;2022-11-21T00:43:13;63.33;;;44.23;;
15340;SDS011;7770;52.158;5.372;2022-11-21T00:45:59;63.13;;;43.67;;
15340;SDS011;7770;52.158;5.372;2022-11-21T00:48:46;65.73;;;45.30;;
15340;SDS011;7770;52.158;5.372;2022-11-21T00:51:33;66.07;;;46.53;;
15340;SDS011;7770;52.158;5.372;2022-11-21T00:54:19;64.37;;;46.07;;
15340;SDS011;7770;52.158;5.372;2022-11-21T00:57:05;61.63;;;44.40;;
15340;SDS011;7770;52.158;5.372;2022-11-21T00:59:51;62.23;;;44.83;;
15340;SDS011;7770;52.158;5.372;2022-11-21T01:02:37;61.87;;;44.83;;
15340;SDS011;7770;52.158;5.372;2022-11-21T01:05:23;64.30;;;45.37;;
15340;SDS011;7770;52.158;5.372;2022-11-21T01:08:09;65.73;;;46.60;;
15340;SDS011;7770;52.158;5.372;2022-11-21T01:10:55;66.47;;;46.80;;
15340;SDS011;7770;52.158;5.372;2022-11-21T01:13:41;63.43;;;43.73;;
15340;SDS011;7770;52.158;5.372;2022-11-21T01:16:27;65.37;;;43.83;;
15340;SDS011;7770;52.158;5.372;2022-11-21T01:19:14;61.83;;;44.13;;
15340;SDS011;7770;52.158;5.372;2022-11-21T01:22:00;58.70;;;42.43;;
15340;SDS011;7770;52.158;5.372;2022-11-21T01:24:46;56.17;;;39.23;;
15340;SDS011;7770;52.158;5.372;2022-11-21T01:27:32;55.37;;;39.43;;
15340;SDS011;7770;52.158;5.372;2022-11-21T01:30:18;58.67;;;41.23;;
15340;SDS011;7770;52.158;5.372;2022-11-21T01:33:04;63.47;;;43.93;;
15340;SDS011;7770;52.158;5.372;2022-11-21T01:35:50;58.83;;;43.23;;
15340;SDS011;7770;52.158;5.372;2022-11-21T01:38:36;65.70;;;44.57;;
15340;SDS011;7770;52.158;5.372;2022-11-21T01:41:25;64.37;;;46.10;;
15340;SDS011;7770;52.158;5.372;2022-11-21T01:44:22;60.83;;;43.07;;
15340;SDS011;7770;52.158;5.372;2022-11-21T01:47:10;58.17;;;43.47;;
15340;SDS011;7770;52.158;5.372;2022-11-21T01:49:57;65.23;;;45.17;;
15340;SDS011;7770;52.158;5.372;2022-11-21T01:52:43;59.67;;;41.87;;
15340;SDS011;7770;52.158;5.372;2022-11-21T01:55:29;63.27;;;44.70;;
15340;SDS011;7770;52.158;5.372;2022-11-21T01:58:15;65.83;;;44.63;;
15340;SDS011;7770;52.158;5.372;2022-11-21T02:01:02;62.67;;;42.70;;
15340;SDS011;7770;52.158;5.372;2022-11-21T02:03:48;57.13;;;40.43;;
15340;SDS011;7770;52.158;5.372;2022-11-21T02:06:35;57.37;;;40.43;;
15340;SDS011;7770;52.158;5.372;2022-11-21T02:09:22;57.43;;;40.87;;
15340;SDS011;7770;52.158;5.372;2022-11-21T02:12:20;56.27;;;39.53;;
15340;SDS011;7770;52.158;5.372;2022-11-21T02:15:13;62.93;;;40.97;;
15340;SDS011;7770;52.158;5.372;2022-11-21T02:18:00;61.20;;;42.30;;
15340;SDS011;7770;52.158;5.372;2022-11-21T02:20:47;60.90;;;40.80;;
15340;SDS011;7770;52.158;5.372;2022-11-21T02:23:48;58.97;;;41.70;;
15340;SDS011;7770;52.158;5.372;2022-11-21T02:26:49;61.93;;;41.30;;
15340;SDS011;7770;52.158;5.372;2022-11-21T02:29:35;61.00;;;43.27;;
15340;SDS011;7770;52.158;5.372;2022-11-21T02:32:24;61.27;;;40.63;;
15340;SDS011;7770;52.158;5.372;2022-11-21T02:35:21;60.90;;;42.83;;
15340;SDS011;7770;52.158;5.372;2022-11-21T02:41:08;58.80;;;40.63;;
15340;SDS011;7770;52.158;5.372;2022-11-21T02:44:19;62.73;;;41.00;;
15340;SDS011;7770;52.158;5.372;2022-11-21T02:47:18;64.53;;;41.30;;
15340;SDS011;7770;52.158;5.372;2022-11-21T02:50:13;62.93;;;42.13;;
15340;SDS011;7770;52.158;5.372;2022-11-21T02:53:17;68.27;;;41.30;;
15340;SDS011;7770;52.158;5.372;2022-11-21T02:56:03;68.20;;;41.87;;
15340;SDS011;7770;52.158;5.372;2022-11-21T02:58:49;76.47;;;40.90;;
15340;SDS011;7770;52.158;5.372;2022-11-21T03:01:35;71.73;;;43.67;;
15340;SDS011;7770;52.158;5.372;2022-11-21T03:04:21;72.43;;;43.53;;
15340;SDS011;7770;52.158;5.372;2022-11-21T03:07:07;73.53;;;44.03;;
15340;SDS011;7770;52.158;5.372;2022-11-21T03:09:53;77.70;;;43.73;;
15340;SDS011;7770;52.158;5.372;2022-11-21T03:12:40;83.07;;;46.10;;
15340;SDS011;7770;52.158;5.372;2022-11-21T03:15:28;88.77;;;45.70;;
15340;SDS011;7770;52.158;5.372;2022-11-21T03:18:16;91.50;;;44.93;;
15340;SDS011;7770;52.158;5.372;2022-11-21T03:21:02;86.80;;;44.87;;
15340;SDS011;7770;52.158;5.372;2022-11-21T03:23:48;100.40;;;37.17;;
15340;SDS011;7770;52.158;5.372;2022-11-21T03:26:34;101.77;;;40.73;;
15340;SDS011;7770;52.158;5.372;2022-11-21T03:29:20;85.37;;;39.77;;
15340;SDS011;7770;52.158;5.372;2022-11-21T03:32:06;110.23;;;41.37;;
15340;SDS011;7770;52.158;5.372;2022-11-21T03:34:52;121.13;;;41.60;;
15340;SDS011;7770;52.158;5.372;2022-11-21T03:37:38;92.40;;;39.50;;
15340;SDS011;7770;52.158;5.372;2022-11-21T03:40:24;112.90;;;39.70;;
15340;SDS011;7770;52.158;5.372;2022-11-21T03:43:10;87.80;;;40.10;;
15340;SDS011;7770;52.158;5.372;2022-11-21T03:45:56;138.33;;;46.23;;
15340;SDS011;7770;52.158;5.372;2022-11-21T03:48:42;221.27;;;45.97;;
15340;SDS011;7770;52.158;5.372;2022-11-21T03:51:28;314.57;;;49.13;;
15340;SDS011;7770;52.158;5.372;2022-11-21T03:54:14;234.60;;;46.37;;
15340;SDS011;7770;52.158;5.372;2022-11-21T03:57:00;145.57;;;45.07;;
15340;SDS011;7770;52.158;5.372;2022-11-21T03:59:46;237.50;;;48.93;;
15340;SDS011;7770;52.158;5.372;2022-11-21T04:02:32;186.37;;;46.27;;
15340;SDS011;7770;52.158;5.372;2022-11-21T04:05:18;213.97;;;46.83;;
15340;SDS011;7770;52.158;5.372;2022-11-21T04:08:04;248.00;;;48.43;;
15340;SDS011;7770;52.158;5.372;2022-11-21T04:10:50;260.67;;;48.43;;
15340;SDS011;7770;52.158;5.372;2022-11-21T04:13:38;288.43;;;50.27;;
15340;SDS011;7770;52.158;5.372;2022-11-21T04:16:24;232.67;;;47.33;;
15340;SDS011;7770;52.158;5.372;2022-11-21T04:19:10;370.87;;;52.43;;
15340;SDS011;7770;52.158;5.372;2022-11-21T04:21:56;197.17;;;47.30;;
15340;SDS011;7770;52.158;5.372;2022-11-21T04:24:42;186.20;;;49.30;;
15340;SDS011;7770;52.158;5.372;2022-11-21T04:27:28;300.93;;;52.40;;
15340;SDS011;7770;52.158;5.372;2022-11-21T04:30:15;289.33;;;51.47;;
15340;SDS011;7770;52.158;5.372;2022-11-21T04:33:01;304.40;;;53.60;;
15340;SDS011;7770;52.158;5.372;2022-11-21T04:35:47;273.73;;;51.73;;
15340;SDS011;7770;52.158;5.372;2022-11-21T04:38:33;276.70;;;53.73;;
15340;SDS011;7770;52.158;5.372;2022-11-21T04:41:20;391.80;;;61.33;;
15340;SDS011;7770;52.158;5.372;2022-11-21T04:44:06;262.53;;;52.60;;
15340;SDS011;7770;52.158;5.372;2022-11-21T04:46:52;253.80;;;50.43;;
15340;SDS011;7770;52.158;5.372;2022-11-21T04:49:38;292.90;;;54.33;;
15340;SDS011;7770;52.158;5.372;2022-11-21T04:52:24;254.37;;;52.60;;
15340;SDS011;7770;52.158;5.372;2022-11-21T04:55:10;255.37;;;53.53;;
15340;SDS011;7770;52.158;5.372;2022-11-21T04:57:56;232.37;;;53.67;;
15340;SDS011;7770;52.158;5.372;2022-11-21T05:00:43;204.43;;;53.20;;
15340;SDS011;7770;52.158;5.372;2022-11-21T05:03:29;160.70;;;53.80;;
15340;SDS011;7770;52.158;5.372;2022-11-21T05:06:14;277.57;;;58.30;;
15340;SDS011;7770;52.158;5.372;2022-11-21T05:09:00;213.20;;;52.97;;
15340;SDS011;7770;52.158;5.372;2022-11-21T05:11:46;197.90;;;54.27;;
15340;SDS011;7770;52.158;5.372;2022-11-21T05:14:51;154.37;;;51.07;;
15340;SDS011;7770;52.158;5.372;2022-11-21T05:17:37;125.17;;;49.90;;
15340;SDS011;7770;52.158;5.372;2022-11-21T05:20:23;140.97;;;48.60;;
15340;SDS011;7770;52.158;5.372;2022-11-21T05:23:09;121.70;;;48.40;;
15340;SDS011;7770;52.158;5.372;2022-11-21T05:25:55;113.57;;;46.20;;
15340;SDS011;7770;52.158;5.372;2022-11-21T05:28:41;125.07;;;46.27;;
15340;SDS011;7770;52.158;5.372;2022-11-21T05:31:27;113.30;;;45.07;;
15340;SDS011;7770;52.158;5.372;2022-11-21T05:34:13;148.10;;;46.73;;
15340;SDS011;7770;52.158;5.372;2022-11-21T05:36:59;170.70;;;49.93;;
15340;SDS011;7770;52.158;5.372;2022-11-21T05:39:45;130.13;;;47.03;;
15340;SDS011;7770;52.158;5.372;2022-11-21T05:42:31;169.27;;;48.13;;
15340;SDS011;7770;52.158;5.372;2022-11-21T05:45:35;178.63;;;48.07;;
15340;SDS011;7770;52.158;5.372;2022-11-21T05:48:21;195.20;;;51.50;;
15340;SDS011;7770;52.158;5.372;2022-11-21T05:51:07;181.97;;;50.97;;
15340;SDS011;7770;52.158;5.372;2022-11-21T05:53:54;191.63;;;51.33;;
15340;SDS011;7770;52.158;5.372;2022-11-21T05:56:40;213.10;;;49.93;;
15340;SDS011;7770;52.158;5.372;2022-11-21T05:59:26;236.33;;;54.20;;
15340;SDS011;7770;52.158;5.372;2022-11-21T06:02:12;211.43;;;53.17;;
15340;SDS011;7770;52.158;5.372;2022-11-21T06:05:17;218.70;;;56.67;;
15340;SDS011;7770;52.158;5.372;2022-11-21T06:08:03;254.07;;;60.70;;
15340;SDS011;7770;52.158;5.372;2022-11-21T06:10:49;261.67;;;57.03;;
15340;SDS011;7770;52.158;5.372;2022-11-21T06:13:35;263.87;;;59.43;;
15340;SDS011;7770;52.158;5.372;2022-11-21T06:16:22;218.10;;;57.03;;
15340;SDS011;7770;52.158;5.372;2022-11-21T06:19:08;255.90;;;59.17;;
15340;SDS011;7770;52.158;5.372;2022-11-21T06:21:54;235.13;;;56.50;;
15340;SDS011;7770;52.158;5.372;2022-11-21T06:24:40;226.40;;;48.87;;
15340;SDS011;7770;52.158;5.372;2022-11-21T06:27:27;253.93;;;57.10;;
15340;SDS011;7770;52.158;5.372;2022-11-21T06:30:14;260.07;;;58.60;;
15340;SDS011;7770;52.158;5.372;2022-11-21T06:33:01;265.30;;;58.30;;
15340;SDS011;7770;52.158;5.372;2022-11-21T06:35:51;275.17;;;58.03;;
15340;SDS011;7770;52.158;5.372;2022-11-21T06:38:37;214.27;;;56.60;;
15340;SDS011;7770;52.158;5.372;2022-11-21T06:41:24;282.87;;;59.17;;
15340;SDS011;7770;52.158;5.372;2022-11-21T06:44:14;250.60;;;57.50;;
15340;SDS011;7770;52.158;5.372;2022-11-21T06:47:01;218.37;;;56.63;;
15340;SDS011;7770;52.158;5.372;2022-11-21T06:49:47;217.00;;;57.17;;
15340;SDS011;7770;52.158;5.372;2022-11-21T06:52:33;213.20;;;56.03;;
15340;SDS011;7770;52.158;5.372;2022-11-21T06:55:19;196.03;;;54.40;;
15340;SDS011;7770;52.158;5.372;2022-11-21T06:58:06;180.33;;;54.53;;
15340;SDS011;7770;52.158;5.372;2022-11-21T07:00:52;170.17;;;53.83;;
15340;SDS011;7770;52.158;5.372;2022-11-21T07:03:38;194.47;;;55.93;;
15340;SDS011;7770;52.158;5.372;2022-11-21T07:06:24;161.17;;;50.20;;
15340;SDS011;7770;52.158;5.372;2022-11-21T07:09:11;148.80;;;51.43;;
15340;SDS011;7770;52.158;5.372;2022-11-21T07:11:57;144.13;;;52.97;;
15340;SDS011;7770;52.158;5.372;2022-11-21T07:15:04;145.83;;;50.93;;
15340;SDS011;7770;52.158;5.372;2022-11-21T07:17:50;135.90;;;50.07;;
15340;SDS011;7770;52.158;5.372;2022-11-21T07:20:36;132.00;;;49.63;;
15340;SDS011;7770;52.158;5.372;2022-11-21T07:23:23;136.70;;;49.83;;
15340;SDS011;7770;52.158;5.372;2022-11-21T07:26:09;135.67;;;50.03;;
15340;SDS011;7770;52.158;5.372;2022-11-21T07:28:55;118.07;;;44.23;;
15340;SDS011;7770;52.158;5.372;2022-11-21T07:31:43;118.23;;;45.87;;
15340;SDS011;7770;52.158;5.372;2022-11-21T07:34:29;107.40;;;43.13;;
15340;SDS011;7770;52.158;5.372;2022-11-21T07:37:15;111.97;;;45.60;;
15340;SDS011;7770;52.158;5.372;2022-11-21T07:40:01;115.20;;;45.50;;
15340;SDS011;7770;52.158;5.372;2022-11-21T07:42:47;105.43;;;44.10;;
15340;SDS011;7770;52.158;5.372;2022-11-21T07:45:33;106.13;;;44.57;;
15340;SDS011;7770;52.158;5.372;2022-11-21T07:48:19;111.37;;;44.70;;
15340;SDS011;7770;52.158;5.372;2022-11-21T07:51:05;108.60;;;44.90;;
15340;SDS011;7770;52.158;5.372;2022-11-21T07:53:51;120.43;;;46.53;;
15340;SDS011;7770;52.158;5.372;2022-11-21T07:56:37;109.93;;;44.87;;
15340;SDS011;7770;52.158;5.372;2022-11-21T07:59:23;123.37;;;46.33;;
15340;SDS011;7770;52.158;5.372;2022-11-21T08:02:19;101.23;;;44.87;;
15340;SDS011;7770;52.158;5.372;2022-11-21T08:05:07;95.63;;;44.20;;
15340;SDS011;7770;52.158;5.372;2022-11-21T08:07:53;102.07;;;44.43;;
15340;SDS011;7770;52.158;5.372;2022-11-21T08:10:43;97.00;;;44.00;;
15340;SDS011;7770;52.158;5.372;2022-11-21T08:13:30;91.17;;;44.30;;
15340;SDS011;7770;52.158;5.372;2022-11-21T08:16:16;98.17;;;44.40;;
15340;SDS011;7770;52.158;5.372;2022-11-21T08:19:02;96.43;;;45.43;;
15340;SDS011;7770;52.158;5.372;2022-11-21T08:21:49;94.00;;;43.80;;
15340;SDS011;7770;52.158;5.372;2022-11-21T08:24:35;103.63;;;46.37;;
15340;SDS011;7770;52.158;5.372;2022-11-21T08:27:21;88.33;;;43.07;;
15340;SDS011;7770;52.158;5.372;2022-11-21T08:30:09;95.40;;;44.80;;
15340;SDS011;7770;52.158;5.372;2022-11-21T08:32:56;104.13;;;47.73;;
15340;SDS011;7770;52.158;5.372;2022-11-21T08:35:43;106.43;;;48.80;;
15340;SDS011;7770;52.158;5.372;2022-11-21T08:38:29;108.70;;;48.27;;
15340;SDS011;7770;52.158;5.372;2022-11-21T08:41:15;107.47;;;49.90;;
15340;SDS011;7770;52.158;5.372;2022-11-21T08:44:19;115.47;;;52.30;;
15340;SDS011;7770;52.158;5.372;2022-11-21T08:47:05;120.87;;;52.03;;
15340;SDS011;7770;52.158;5.372;2022-11-21T08:49:51;115.83;;;52.40;;
15340;SDS011;7770;52.158;5.372;2022-11-21T08:52:37;123.17;;;50.07;;
15340;SDS011;7770;52.158;5.372;2022-11-21T08:55:23;109.97;;;49.27;;
15340;SDS011;7770;52.158;5.372;2022-11-21T08:58:09;103.33;;;48.83;;
15340;SDS011;7770;52.158;5.372;2022-11-21T09:00:55;95.67;;;47.60;;
15340;SDS011;7770;52.158;5.372;2022-11-21T09:03:43;104.73;;;47.97;;
15340;SDS011;7770;52.158;5.372;2022-11-21T09:06:29;103.70;;;47.77;;
15340;SDS011;7770;52.158;5.372;2022-11-21T09:09:15;104.30;;;49.93;;
15340;SDS011;7770;52.158;5.372;2022-11-21T09:12:01;108.73;;;48.57;;
15340;SDS011;7770;52.158;5.372;2022-11-21T09:14:47;101.43;;;47.03;;
15340;SDS011;7770;52.158;5.372;2022-11-21T09:17:52;106.33;;;49.53;;
15340;SDS011;7770;52.158;5.372;2022-11-21T09:20:50;101.50;;;47.83;;
15340;SDS011;7770;52.158;5.372;2022-11-21T09:23:36;108.27;;;50.77;;
15340;SDS011;7770;52.158;5.372;2022-11-21T09:26:22;119.27;;;53.07;;
15340;SDS011;7770;52.158;5.372;2022-11-21T09:29:08;112.83;;;50.97;;
15340;SDS011;7770;52.158;5.372;2022-11-21T09:31:59;125.40;;;54.70;;
15340;SDS011;7770;52.158;5.372;2022-11-21T09:34:45;141.23;;;52.17;;
15340;SDS011;7770;52.158;5.372;2022-11-21T09:37:40;122.07;;;52.60;;
15340;SDS011;7770;52.158;5.372;2022-11-21T09:40:27;142.43;;;54.70;;
15340;SDS011;7770;52.158;5.372;2022-11-21T09:43:25;142.20;;;59.13;;
15340;SDS011;7770;52.158;5.372;2022-11-21T09:46:35;128.93;;;57.07;;
15340;SDS011;7770;52.158;5.372;2022-11-21T09:49:31;143.40;;;63.83;;
15340;SDS011;7770;52.158;5.372;2022-11-21T09:52:30;130.10;;;59.50;;
15340;SDS011;7770;52.158;5.372;2022-11-21T09:58:55;116.73;;;57.47;;
15340;SDS011;7770;52.158;5.372;2022-11-21T10:02:02;136.53;;;50.97;;
15340;SDS011;7770;52.158;5.372;2022-11-21T10:05:11;114.27;;;51.70;;
15340;SDS011;7770;52.158;5.372;2022-11-21T10:08:00;115.37;;;50.83;;
15340;SDS011;7770;52.158;5.372;2022-11-21T10:11:09;119.77;;;50.40;;
15340;SDS011;7770;52.158;5.372;2022-11-21T10:20:32;123.10;;;49.70;;
15340;SDS011;7770;52.158;5.372;2022-11-21T10:26:55;115.30;;;50.33;;
15340;SDS011;7770;52.158;5.372;2022-11-21T10:29:48;106.33;;;49.97;;
15340;SDS011;7770;52.158;5.372;2022-11-21T10:32:44;93.63;;;47.87;;
15340;SDS011;7770;52.158;5.372;2022-11-21T10:35:35;94.07;;;48.93;;
15340;SDS011;7770;52.158;5.372;2022-11-21T10:38:26;91.63;;;47.83;;
15340;SDS011;7770;52.158;5.372;2022-11-21T10:44:30;92.17;;;46.97;;
15340;SDS011;7770;52.158;5.372;2022-11-21T10:47:34;80.77;;;46.70;;
15340;SDS011;7770;52.158;5.372;2022-11-21T10:50:24;82.30;;;46.43;;
15340;SDS011;7770;52.158;5.372;2022-11-21T10:53:33;85.63;;;46.00;;
15340;SDS011;7770;52.158;5.372;2022-11-21T10:56:37;79.53;;;44.63;;
15340;SDS011;7770;52.158;5.372;2022-11-21T10:59:27;76.60;;;45.13;;
15340;SDS011;7770;52.158;5.372;2022-11-21T11:05:17;75.23;;;45.03;;
15340;SDS011;7770;52.158;5.372;2022-11-21T11:08:10;70.27;;;43.47;;
15340;SDS011;7770;52.158;5.372;2022-11-21T11:13:58;65.53;;;44.03;;
15340;SDS011;7770;52.158;5.372;2022-11-21T11:16:51;60.47;;;40.50;;
15340;SDS011;7770;52.158;5.372;2022-11-21T11:19:37;63.43;;;39.97;;
15340;SDS011;7770;52.158;5.372;2022-11-21T11:22:26;64.03;;;40.47;;
15340;SDS011;7770;52.158;5.372;2022-11-21T11:25:14;62.40;;;42.07;;
15340;SDS011;7770;52.158;5.372;2022-11-21T11:28:01;61.33;;;42.30;;
15340;SDS011;7770;52.158;5.372;2022-11-21T11:30:53;56.70;;;40.60;;
15340;SDS011;7770;52.158;5.372;2022-11-21T11:46:56;53.73;;;38.90;;
15340;SDS011;7770;52.158;5.372;2022-11-21T11:53:15;52.77;;;39.80;;
15340;SDS011;7770;52.158;5.372;2022-11-21T11:56:10;51.87;;;38.23;;
15340;SDS011;7770;52.158;5.372;2022-11-21T12:02:23;56.03;;;39.17;;
15340;SDS011;7770;52.158;5.372;2022-11-21T12:05:16;56.87;;;39.93;;
15340;SDS011;7770;52.158;5.372;2022-11-21T12:08:14;61.90;;;41.87;;
15340;SDS011;7770;52.158;5.372;2022-11-21T12:11:17;58.33;;;42.73;;
15340;SDS011;7770;52.158;5.372;2022-11-21T12:23:51;62.83;;;41.63;;
15340;SDS011;7770;52.158;5.372;2022-11-21T12:32:55;52.40;;;39.20;;
15340;SDS011;7770;52.158;5.372;2022-11-21T12:36:03;50.60;;;38.23;;
15340;SDS011;7770;52.158;5.372;2022-11-21T12:42:38;50.17;;;38.50;;
15340;SDS011;7770;52.158;5.372;2022-11-21T12:45:35;52.27;;;36.63;;
15340;SDS011;7770;52.158;5.372;2022-11-21T12:48:37;46.87;;;37.33;;
15340;SDS011;7770;52.158;5.372;2022-11-21T13:04:23;44.70;;;36.70;;
15340;SDS011;7770;52.158;5.372;2022-11-21T13:07:15;49.07;;;39.03;;
15340;SDS011;7770;52.158;5.372;2022-11-21T13:10:03;47.77;;;35.97;;
15340;SDS011;7770;52.158;5.372;2022-11-21T13:13:18;43.13;;;34.73;;
15340;SDS011;7770;52.158;5.372;2022-11-21T13:16:16;38.30;;;31.23;;
15340;SDS011;7770;52.158;5.372;2022-11-21T13:19:28;37.87;;;30.20;;
15340;SDS011;7770;52.158;5.372;2022-11-21T13:25:38;33.13;;;27.63;;
15340;SDS011;7770;52.158;5.372;2022-11-21T13:28:28;40.57;;;30.63;;
15340;SDS011;7770;52.158;5.372;2022-11-21T13:31:32;33.67;;;28.23;;
15340;SDS011;7770;52.158;5.372;2022-11-21T13:34:33;34.73;;;26.13;;
15340;SDS011;7770;52.158;5.372;2022-11-21T13:40:49;27.43;;;22.73;;
15340;SDS011;7770;52.158;5.372;2022-11-21T13:44:27;26.57;;;21.77;;
15340;SDS011;7770;52.158;5.372;2022-11-21T13:47:35;33.13;;;25.63;;
15340;SDS011;7770;52.158;5.372;2022-11-21T13:50:50;29.97;;;23.37;;
15340;SDS011;7770;52.158;5.372;2022-11-21T13:53:48;31.47;;;23.67;;
15340;SDS011;7770;52.158;5.372;2022-11-21T14:03:53;28.97;;;21.37;;
15340;SDS011;7770;52.158;5.372;2022-11-21T14:07:23;29.50;;;21.73;;
15340;SDS011;7770;52.158;5.372;2022-11-21T14:13:22;27.70;;;21.07;;
15340;SDS011;7770;52.158;5.372;2022-11-21T14:19:32;27.73;;;21.63;;
15340;SDS011;7770;52.158;5.372;2022-11-21T14:22:30;25.73;;;20.83;;
15340;SDS011;7770;52.158;5.372;2022-11-21T14:25:27;29.83;;;20.83;;
15340;SDS011;7770;52.158;5.372;2022-11-21T14:28:33;24.97;;;20.47;;
15340;SDS011;7770;52.158;5.372;2022-11-21T14:31:19;29.50;;;20.70;;
15340;SDS011;7770;52.158;5.372;2022-11-21T14:34:07;29.10;;;21.23;;
15340;SDS011;7770;52.158;5.372;2022-11-21T14:36:54;24.20;;;21.00;;
15340;SDS011;7770;52.158;5.372;2022-11-21T14:39:44;25.37;;;21.23;;
15340;SDS011;7770;52.158;5.372;2022-11-21T14:42:35;25.23;;;21.00;;
15340;SDS011;7770;52.158;5.372;2022-11-21T14:45:22;26.47;;;20.73;;
15340;SDS011;7770;52.158;5.372;2022-11-21T14:48:10;27.33;;;21.37;;
15340;SDS011;7770;52.158;5.372;2022-11-21T14:50:57;27.77;;;21.43;;
15340;SDS011;7770;52.158;5.372;2022-11-21T14:53:45;31.57;;;21.60;;
15340;SDS011;7770;52.158;5.372;2022-11-21T14:56:33;27.37;;;21.53;;
15340;SDS011;7770;52.158;5.372;2022-11-21T14:59:37;25.57;;;20.10;;
15340;SDS011;7770;52.158;5.372;2022-11-21T15:02:27;22.70;;;19.70;;
15340;SDS011;7770;52.158;5.372;2022-11-21T15:05:16;26.53;;;21.13;;
15340;SDS011;7770;52.158;5.372;2022-11-21T15:08:02;25.23;;;22.07;;
15340;SDS011;7770;52.158;5.372;2022-11-21T15:10:50;25.23;;;20.60;;
15340;SDS011;7770;52.158;5.372;2022-11-21T15:13:36;25.67;;;22.00;;
15340;SDS011;7770;52.158;5.372;2022-11-21T15:16:22;26.03;;;21.30;;
15340;SDS011;7770;52.158;5.372;2022-11-21T15:19:08;26.20;;;20.87;;
15340;SDS011;7770;52.158;5.372;2022-11-21T15:21:56;30.90;;;22.10;;
15340;SDS011;7770;52.158;5.372;2022-11-21T15:24:44;26.00;;;20.77;;
15340;SDS011;7770;52.158;5.372;2022-11-21T15:27:31;25.80;;;20.97;;
15340;SDS011;7770;52.158;5.372;2022-11-21T15:30:20;28.63;;;22.43;;
15340;SDS011;7770;52.158;5.372;2022-11-21T15:33:18;29.93;;;21.80;;
15340;SDS011;7770;52.158;5.372;2022-11-21T15:36:10;28.10;;;21.33;;
15340;SDS011;7770;52.158;5.372;2022-11-21T15:39:18;27.00;;;22.00;;
15340;SDS011;7770;52.158;5.372;2022-11-21T15:42:53;27.03;;;22.10;;
15340;SDS011;7770;52.158;5.372;2022-11-21T15:45:21;27.87;;;21.13;;
15340;SDS011;7770;52.158;5.372;2022-11-21T15:48:10;27.57;;;19.00;;
15340;SDS011;7770;52.158;5.372;2022-11-21T15:50:56;24.97;;;21.43;;
15340;SDS011;7770;52.158;5.372;2022-11-21T15:53:42;29.37;;;19.77;;
15340;SDS011;7770;52.158;5.372;2022-11-21T15:56:28;24.13;;;17.97;;
15340;SDS011;7770;52.158;5.372;2022-11-21T15:59:14;24.33;;;19.60;;
15340;SDS011;7770;52.158;5.372;2022-11-21T16:02:01;24.27;;;18.90;;
15340;SDS011;7770;52.158;5.372;2022-11-21T16:04:48;27.63;;;20.90;;
15340;SDS011;7770;52.158;5.372;2022-11-21T16:07:34;24.10;;;19.37;;
15340;SDS011;7770;52.158;5.372;2022-11-21T16:10:19;26.93;;;19.93;;
15340;SDS011;7770;52.158;5.372;2022-11-21T16:13:06;25.10;;;19.93;;
15340;SDS011;7770;52.158;5.372;2022-11-21T16:15:52;29.47;;;22.40;;
15340;SDS011;7770;52.158;5.372;2022-11-21T16:18:38;27.60;;;21.03;;
15340;SDS011;7770;52.158;5.372;2022-11-21T16:21:24;24.53;;;19.97;;
15340;SDS011;7770;52.158;5.372;2022-11-21T16:24:11;33.00;;;21.10;;
15340;SDS011;7770;52.158;5.372;2022-11-21T16:26:57;27.00;;;19.43;;
15340;SDS011;7770;52.158;5.372;2022-11-21T16:29:43;30.10;;;21.57;;
15340;SDS011;7770;52.158;5.372;2022-11-21T16:32:29;27.57;;;21.67;;
15340;SDS011;7770;52.158;5.372;2022-11-21T16:35:15;29.23;;;21.77;;
15340;SDS011;7770;52.158;5.372;2022-11-21T16:38:01;33.57;;;23.67;;
15340;SDS011;7770;52.158;5.372;2022-11-21T16:40:53;30.80;;;22.37;;
15340;SDS011;7770;52.158;5.372;2022-11-21T16:43:45;27.03;;;22.27;;
15340;SDS011;7770;52.158;5.372;2022-11-21T16:46:33;29.33;;;22.60;;
15340;SDS011;7770;52.158;5.372;2022-11-21T16:49:25;30.97;;;21.97;;
15340;SDS011;7770;52.158;5.372;2022-11-21T16:52:12;30.57;;;23.23;;
15340;SDS011;7770;52.158;5.372;2022-11-21T16:54:58;27.67;;;21.23;;
15340;SDS011;7770;52.158;5.372;2022-11-21T16:57:46;32.47;;;21.30;;
15340;SDS011;7770;52.158;5.372;2022-11-21T17:00:32;26.20;;;21.27;;
15340;SDS011;7770;52.158;5.372;2022-11-21T17:03:18;31.43;;;22.47;;
15340;SDS011;7770;52.158;5.372;2022-11-21T17:06:04;32.77;;;23.47;;
15340;SDS011;7770;52.158;5.372;2022-11-21T17:08:51;33.70;;;22.47;;
15340;SDS011;7770;52.158;5.372;2022-11-21T17:11:37;30.40;;;21.90;;
15340;SDS011;7770;52.158;5.372;2022-11-21T17:14:23;32.03;;;22.03;;
15340;SDS011;7770;52.158;5.372;2022-11-21T17:17:09;25.33;;;20.53;;
15340;SDS011;7770;52.158;5.372;2022-11-21T17:19:55;32.07;;;20.73;;
15340;SDS011;7770;52.158;5.372;2022-11-21T17:22:41;27.63;;;18.17;;
15340;SDS011;7770;52.158;5.372;2022-11-21T17:25:27;27.07;;;20.50;;
15340;SDS011;7770;52.158;5.372;2022-11-21T17:28:13;23.63;;;18.27;;
15340;SDS011;7770;52.158;5.372;2022-11-21T17:31:04;25.67;;;17.13;;
15340;SDS011;7770;52.158;5.372;2022-11-21T17:33:54;25.90;;;20.23;;
15340;SDS011;7770;52.158;5.372;2022-11-21T17:36:41;23.97;;;16.80;;
15340;SDS011;7770;52.158;5.372;2022-11-21T17:39:27;24.23;;;20.60;;
15340;SDS011;7770;52.158;5.372;2022-11-21T17:42:13;24.50;;;17.07;;
15340;SDS011;7770;52.158;5.372;2022-11-21T17:44:59;20.50;;;16.43;;
15340;SDS011;7770;52.158;5.372;2022-11-21T17:47:45;24.00;;;16.50;;
15340;SDS011;7770;52.158;5.372;2022-11-21T17:50:31;22.53;;;16.27;;
15340;SDS011;7770;52.158;5.372;2022-11-21T17:53:17;18.70;;;14.33;;
15340;SDS011;7770;52.158;5.372;2022-11-21T17:56:04;20.87;;;14.37;;
15340;SDS011;7770;52.158;5.372;2022-11-21T17:58:51;21.97;;;15.40;;
15340;SDS011;7770;52.158;5.372;2022-11-21T18:01:37;18.10;;;14.80;;
15340;SDS011;7770;52.158;5.372;2022-11-21T18:04:23;20.50;;;15.70;;
15340;SDS011;7770;52.158;5.372;2022-11-21T18:07:09;21.00;;;15.83;;
15340;SDS011;7770;52.158;5.372;2022-11-21T18:09:56;22.77;;;15.60;;
15340;SDS011;7770;52.158;5.372;2022-11-21T18:12:42;22.00;;;15.40;;
15340;SDS011;7770;52.158;5.372;2022-11-21T18:15:29;33.37;;;26.40;;
15340;SDS011;7770;52.158;5.372;2022-11-21T18:18:15;27.17;;;19.10;;